Pagrindinis puslapis
METAR-TAF:

METAR-TAF

Oro uostai :

Gvidonija, Italija

platuma: 42-00N, ilguma: 012-44E, Aukštis: 88 m

Dabartinis oras

Ataskaita buvo paskelbta 5 valandos ir 59 minutes, ne 17:55 UTC
Vėjas 14 kt iš Pietų/Pietryčių
Temperatūra 22°C
Drėgmė 57%
Slėgis 1004 hPa
Matomumas 10 km arba daugiau
Išsisklaidę debesys ne aukštis 3000 ft
Išsisklaidę debesys ne aukštis 3500 ft

METAR: LIRG 041755Z 15014KT 9999 SCT030 SCT035 22/13 Q1004 RMK OVC MON NE LIB NC VIS MIN 9999 BLU

Laikas: 01:54 (23:54 UTC)

Prognozė

Ataskaita buvo paskelbta 9 valandos ir 54 minutes, ne 14:00 UTC
Prognozė galioja nuo 04 metu 15 UTC su 04 metu 24 UTC
Vėjas 18 kt iš Pietų
Matomumas 10 km arba daugiau
Išsisklaidę debesys ne aukštis 3000 ft
Išsisklaidę debesys ne aukštis 5000 ft
Laikinai
nuo 04 metu 17 UTC su 04 metu 24 UTC
Mažai debesys ne aukštis 2000 ft, aukštai iškilę kamuoliniai debesys.
lietus

TAF: LIRG 041400Z 0415/0424 18018KT 9999 SCT030 SCT050 TEMPO 0417/0424 RA FEW020TCU

Orai ataskaitas ir orų prognozės (METAR, TAF).

turimą stotys yra geltonos ir raudonos taškus žemėlapyje.

Perkelti pele per norėdami pamatyti stoties vardą.

Tada spustelėkite, norėdami matyti oro stebėjimo ir prognozės.

Norėdami pakeisti žemėlapį: spustelėkite ant žalios mygtukų su juodo kryžiaus žemyn,; žalią mygtuką su brūkšneliu, jei norite nutolinti; arba žalių rodyklių gretimoms žemėlapius.


METAR-TAF: